createdAt,value
2017-06-14T00:00:22.775Z,1014.67
2017-06-14T00:01:04.372Z,1014.66
2017-06-14T00:01:45.024Z,1014.66
2017-06-14T00:02:25.676Z,1014.64
2017-06-14T00:03:06.326Z,1014.65
2017-06-14T00:03:48.007Z,1014.67
2017-06-14T00:04:29.681Z,1014.63
2017-06-14T00:05:10.338Z,1014.66
2017-06-14T00:05:50.988Z,1014.64
2017-06-14T00:06:31.639Z,1014.62
2017-06-14T00:07:12.300Z,1014.64
2017-06-14T00:07:52.952Z,1014.58
2017-06-14T00:08:33.599Z,1014.57
2017-06-14T00:09:16.197Z,1014.6
2017-06-14T00:10:01.458Z,1014.58
2017-06-14T00:10:44.056Z,1014.54
2017-06-14T00:11:24.713Z,1014.57
2017-06-14T00:12:05.262Z,1014.54
2017-06-14T00:12:47.899Z,1014.57
2017-06-14T00:13:28.513Z,1014.58
2017-06-14T00:14:15.924Z,1014.56
2017-06-14T00:14:56.498Z,1014.59
2017-06-14T00:15:37.095Z,1014.56
2017-06-14T00:16:18.688Z,1014.61
2017-06-14T00:17:01.401Z,1014.58
2017-06-14T00:17:42.054Z,1014.55
2017-06-14T00:18:38.375Z,1014.54
2017-06-14T00:19:19.039Z,1014.56
2017-06-14T00:20:04.390Z,1014.57
2017-06-14T00:20:45.043Z,1014.6
2017-06-14T00:21:26.620Z,1014.59
2017-06-14T00:22:07.211Z,1014.58
2017-06-14T00:22:52.791Z,1014.65
2017-06-14T00:23:33.393Z,1014.64
2017-06-14T00:24:18.857Z,1014.69
2017-06-14T00:24:59.414Z,1014.68
2017-06-14T00:25:40.012Z,1014.69
2017-06-14T00:26:20.592Z,1014.68
2017-06-14T00:27:01.263Z,1014.68
2017-06-14T00:27:42.939Z,1014.71
2017-06-14T00:28:23.593Z,1014.72
2017-06-14T00:29:04.245Z,1014.69
2017-06-14T00:29:44.908Z,1014.7
2017-06-14T00:30:25.552Z,1014.69
2017-06-14T00:31:06.203Z,1014.67
2017-06-14T00:31:51.363Z,1014.69
2017-06-14T00:32:32.016Z,1014.67
2017-06-14T00:33:13.594Z,1014.66
2017-06-14T00:33:54.247Z,1014.67
2017-06-14T00:34:36.845Z,1014.7
2017-06-14T00:35:22.412Z,1014.73
2017-06-14T00:36:03.986Z,1014.72
2017-06-14T00:36:44.638Z,1014.72
2017-06-14T00:37:25.216Z,1014.73
2017-06-14T00:38:10.810Z,1014.74
2017-06-14T00:38:51.448Z,1014.73
2017-06-14T00:39:33.104Z,1014.73
2017-06-14T00:40:13.670Z,1014.7
2017-06-14T00:40:55.264Z,1014.75
2017-06-14T00:41:35.859Z,1014.71
2017-06-14T00:42:16.519Z,1014.69
2017-06-14T00:42:57.090Z,1014.67
2017-06-14T00:43:37.679Z,1014.7
2017-06-14T00:44:23.185Z,1014.72
2017-06-14T00:45:04.761Z,1014.72
2017-06-14T00:45:46.206Z,1014.69
2017-06-14T00:46:26.839Z,1014.68
2017-06-14T00:47:07.437Z,1014.66
2017-06-14T00:47:48.087Z,1014.7
2017-06-14T00:48:28.750Z,1014.68
2017-06-14T00:49:11.346Z,1014.68
2017-06-14T00:49:51.994Z,1014.69
2017-06-14T00:50:44.116Z,1014.7
2017-06-14T00:51:25.791Z,1014.67
2017-06-14T00:52:06.449Z,1014.66
2017-06-14T00:52:47.103Z,1014.67
2017-06-14T00:53:27.676Z,1014.7
2017-06-14T00:54:08.360Z,1014.64
2017-06-14T00:54:48.973Z,1014.66
2017-06-14T00:55:30.630Z,1014.67
2017-06-14T00:56:11.192Z,1014.69
2017-06-14T00:57:03.769Z,1014.7
2017-06-14T00:57:44.366Z,1014.66
2017-06-14T00:58:25.018Z,1014.7
2017-06-14T00:59:07.635Z,1014.67
2017-06-14T00:59:48.274Z,1014.69
2017-06-14T01:00:29.951Z,1014.72
2017-06-14T01:01:15.222Z,1014.71
2017-06-14T01:01:56.888Z,1014.65
2017-06-14T01:02:37.545Z,1014.66
2017-06-14T01:03:18.115Z,1014.66
2017-06-14T01:03:58.689Z,1014.66
2017-06-14T01:04:39.288Z,1014.64
2017-06-14T01:05:19.955Z,1014.65
2017-06-14T01:06:00.506Z,1014.69
2017-06-14T01:06:41.113Z,1014.61
2017-06-14T01:07:23.750Z,1014.66
2017-06-14T01:08:05.435Z,1014.62
2017-06-14T01:08:47.107Z,1014.65
2017-06-14T01:09:27.760Z,1014.63
2017-06-14T01:10:08.417Z,1014.63
2017-06-14T01:10:49.071Z,1014.66
2017-06-14T01:11:36.385Z,1014.66
2017-06-14T01:12:17.036Z,1014.64
2017-06-14T01:12:58.712Z,1014.65
2017-06-14T01:13:39.367Z,1014.68
2017-06-14T01:14:20.021Z,1014.66
2017-06-14T01:15:00.675Z,1014.64
2017-06-14T01:15:45.934Z,1014.63
2017-06-14T01:16:26.582Z,1014.63
2017-06-14T01:17:08.263Z,1014.66
2017-06-14T01:17:50.966Z,1014.61
2017-06-14T01:18:31.618Z,1014.6
2017-06-14T01:19:14.230Z,1014.56
2017-06-14T01:19:54.864Z,1014.6
2017-06-14T01:20:37.590Z,1014.6
2017-06-14T01:21:18.221Z,1014.58
2017-06-14T01:21:58.774Z,1014.55
2017-06-14T01:22:40.411Z,1014.56
2017-06-14T01:23:21.114Z,1014.59
2017-06-14T01:24:03.287Z,1014.6
2017-06-14T01:24:43.868Z,1014.6
2017-06-14T01:25:25.474Z,1014.58
2017-06-14T01:26:06.072Z,1014.64
2017-06-14T01:26:48.668Z,1014.62
2017-06-14T01:27:29.243Z,1014.61
2017-06-14T01:28:09.814Z,1014.62
2017-06-14T01:28:50.417Z,1014.63
2017-06-14T01:29:31.073Z,1014.58
2017-06-14T01:30:11.641Z,1014.56
2017-06-14T01:30:52.240Z,1014.56
2017-06-14T01:31:37.633Z,1014.55
2017-06-14T01:32:18.292Z,1014.56
2017-06-14T01:32:58.944Z,1014.51
2017-06-14T01:33:40.520Z,1014.48
2017-06-14T01:34:22.197Z,1014.47
2017-06-14T01:35:02.848Z,1014.47
2017-06-14T01:35:43.501Z,1014.46
2017-06-14T01:36:25.177Z,1014.42
2017-06-14T01:37:05.844Z,1014.47
2017-06-14T01:37:46.424Z,1014.44
2017-06-14T01:38:27.035Z,1014.5
2017-06-14T01:39:07.690Z,1014.48
2017-06-14T01:39:48.260Z,1014.47
2017-06-14T01:40:33.708Z,1014.48
2017-06-14T01:41:15.383Z,1014.5
2017-06-14T01:41:55.964Z,1014.51
2017-06-14T01:42:36.605Z,1014.5
2017-06-14T01:43:17.238Z,1014.48
2017-06-14T01:43:57.891Z,1014.44
2017-06-14T01:44:38.540Z,1014.45
2017-06-14T01:45:19.235Z,1014.42
2017-06-14T01:45:59.849Z,1014.43
2017-06-14T01:46:42.448Z,1014.4
2017-06-14T01:47:23.101Z,1014.4
2017-06-14T01:48:03.756Z,1014.4
2017-06-14T01:48:44.331Z,1014.39
2017-06-14T01:49:25.011Z,1014.4
2017-06-14T01:50:06.633Z,1014.43
2017-06-14T01:50:51.894Z,1014.42
2017-06-14T01:51:32.465Z,1014.45
2017-06-14T01:52:13.067Z,1014.44
2017-06-14T01:52:53.655Z,1014.44
2017-06-14T01:53:34.240Z,1014.39
2017-06-14T01:54:14.856Z,1014.45
2017-06-14T01:54:55.506Z,1014.49
2017-06-14T01:55:36.073Z,1014.41
2017-06-14T01:56:16.706Z,1014.47
2017-06-14T01:56:58.285Z,1014.42
2017-06-14T01:57:38.853Z,1014.45
2017-06-14T01:58:20.464Z,1014.44
2017-06-14T01:59:01.063Z,1014.45
2017-06-14T01:59:42.738Z,1014.45
2017-06-14T02:00:23.326Z,1014.45
2017-06-14T02:01:04.005Z,1014.48
2017-06-14T02:01:45.624Z,1014.46
2017-06-14T02:02:26.272Z,1014.46
2017-06-14T02:03:06.929Z,1014.48
2017-06-14T02:03:47.585Z,1014.49
2017-06-14T02:04:28.235Z,1014.51
2017-06-14T02:05:10.828Z,1014.53
2017-06-14T02:05:52.510Z,1014.54
2017-06-14T02:06:34.183Z,1014.51
2017-06-14T02:07:14.754Z,1014.58
2017-06-14T02:07:55.341Z,1014.58
2017-06-14T02:08:35.936Z,1014.55
2017-06-14T02:09:16.591Z,1014.57
2017-06-14T02:09:57.158Z,1014.57
2017-06-14T02:10:38.522Z,1014.61
2017-06-14T02:11:20.210Z,1014.62
2017-06-14T02:12:00.847Z,1014.68
2017-06-14T02:12:41.410Z,1014.65
2017-06-14T02:13:22.056Z,1014.69
2017-06-14T02:14:02.697Z,1014.68
2017-06-14T02:14:43.264Z,1014.69
2017-06-14T02:15:23.904Z,1014.65
2017-06-14T02:16:04.561Z,1014.64
2017-06-14T02:16:45.130Z,1014.62
2017-06-14T02:17:25.770Z,1014.64
2017-06-14T02:18:06.411Z,1014.56
2017-06-14T02:18:51.988Z,1014.59
2017-06-14T02:19:33.665Z,1014.55
2017-06-14T02:20:16.262Z,1014.58
2017-06-14T02:20:56.914Z,1014.6
2017-06-14T02:21:37.567Z,1014.59
2017-06-14T02:22:18.220Z,1014.6
2017-06-14T02:22:58.873Z,1014.6
2017-06-14T02:23:39.525Z,1014.63
2017-06-14T02:24:20.179Z,1014.63
2017-06-14T02:25:00.831Z,1014.64
2017-06-14T02:25:46.401Z,1014.61
2017-06-14T02:26:27.054Z,1014.64
2017-06-14T02:27:07.708Z,1014.59
2017-06-14T02:27:50.307Z,1014.61
2017-06-14T02:28:30.957Z,1014.59
2017-06-14T02:29:11.607Z,1014.6
2017-06-14T02:29:52.261Z,1014.56
2017-06-14T02:30:32.913Z,1014.56
2017-06-14T02:31:13.562Z,1014.55
2017-06-14T02:31:59.951Z,1014.54
2017-06-14T02:32:40.520Z,1014.53
2017-06-14T02:33:22.141Z,1014.52
2017-06-14T02:34:09.690Z,1014.47
2017-06-14T02:34:51.376Z,1014.49
2017-06-14T02:35:31.936Z,1014.5
2017-06-14T02:36:12.540Z,1014.5
2017-06-14T02:36:53.119Z,1014.52
2017-06-14T02:37:33.732Z,1014.55
2017-06-14T02:38:14.330Z,1014.51
2017-06-14T02:38:56.006Z,1014.51
2017-06-14T02:39:36.573Z,1014.52
2017-06-14T02:40:18.240Z,1014.49
2017-06-14T02:40:58.800Z,1014.5
2017-06-14T02:41:39.390Z,1014.49
2017-06-14T02:42:21.017Z,1014.45
2017-06-14T02:43:02.704Z,1014.44
2017-06-14T02:43:43.286Z,1014.43
2017-06-14T02:44:23.952Z,1014.43
2017-06-14T02:45:04.538Z,1014.46
2017-06-14T02:45:45.103Z,1014.43
2017-06-14T02:46:25.740Z,1014.44
2017-06-14T02:47:06.353Z,1014.45
2017-06-14T02:47:48.953Z,1014.45
2017-06-14T02:48:29.614Z,1014.46
2017-06-14T02:49:10.258Z,1014.43
2017-06-14T02:49:50.972Z,1014.42
2017-06-14T02:50:31.598Z,1014.4
2017-06-14T02:51:12.887Z,1014.37
2017-06-14T02:51:53.483Z,1014.39
2017-06-14T02:52:34.154Z,1014.39
2017-06-14T02:53:14.745Z,1014.38
2017-06-14T02:53:55.314Z,1014.36
2017-06-14T02:54:35.942Z,1014.33
2017-06-14T02:55:16.600Z,1014.31
2017-06-14T02:55:57.182Z,1014.36
2017-06-14T02:56:37.795Z,1014.33
2017-06-14T02:57:20.424Z,1014.32
2017-06-14T02:58:02.998Z,1014.35
2017-06-14T02:58:43.652Z,1014.37
2017-06-14T02:59:24.310Z,1014.37
2017-06-14T03:00:05.985Z,1014.39
2017-06-14T03:00:48.582Z,1014.38
2017-06-14T03:01:31.187Z,1014.38
2017-06-14T03:02:11.840Z,1014.38
2017-06-14T03:02:52.397Z,1014.41
2017-06-14T03:03:33.031Z,1014.44
2017-06-14T03:04:15.635Z,1014.42
2017-06-14T03:04:56.185Z,1014.41
2017-06-14T03:05:37.871Z,1014.41
2017-06-14T03:06:19.539Z,1014.42
2017-06-14T03:07:00.127Z,1014.4
2017-06-14T03:07:41.789Z,1014.39
2017-06-14T03:08:22.427Z,1014.41
2017-06-14T03:09:03.004Z,1014.41
2017-06-14T03:09:43.691Z,1014.41
2017-06-14T03:10:30.219Z,1014.41
2017-06-14T03:11:10.876Z,1014.46
2017-06-14T03:11:51.434Z,1014.47
2017-06-14T03:12:36.851Z,1014.51
2017-06-14T03:13:22.244Z,1014.51
2017-06-14T03:14:02.903Z,1014.53
2017-06-14T03:14:43.467Z,1014.54
2017-06-14T03:15:25.091Z,1014.5
2017-06-14T03:16:05.775Z,1014.47
2017-06-14T03:16:46.448Z,1014.48
2017-06-14T03:17:27.002Z,1014.45
2017-06-14T03:18:09.653Z,1014.51
2017-06-14T03:18:51.321Z,1014.49
2017-06-14T03:19:38.838Z,1014.46
2017-06-14T03:20:19.498Z,1014.5
2017-06-14T03:21:00.150Z,1014.47
2017-06-14T03:21:42.736Z,1014.5
2017-06-14T03:22:24.425Z,1014.49
2017-06-14T03:23:06.032Z,1014.55
2017-06-14T03:23:47.712Z,1014.52
2017-06-14T03:24:28.294Z,1014.53
2017-06-14T03:25:08.865Z,1014.5
2017-06-14T03:25:49.517Z,1014.49
2017-06-14T03:26:32.173Z,1014.47
2017-06-14T03:27:12.730Z,1014.5
2017-06-14T03:27:55.381Z,1014.5
2017-06-14T03:28:40.850Z,1014.48
2017-06-14T03:29:32.362Z,1014.49
2017-06-14T03:30:13.010Z,1014.5
2017-06-14T03:30:54.672Z,1014.53
2017-06-14T03:31:35.324Z,1014.53
2017-06-14T03:32:15.997Z,1014.52
2017-06-14T03:32:56.575Z,1014.56
2017-06-14T03:33:47.984Z,1014.57
2017-06-14T03:34:28.540Z,1014.6
2017-06-14T03:35:10.179Z,1014.56
2017-06-14T03:35:52.817Z,1014.64
2017-06-14T03:36:34.490Z,1014.65
2017-06-14T03:37:15.049Z,1014.67
2017-06-14T03:37:56.674Z,1014.68
2017-06-14T03:38:43.203Z,1014.69
2017-06-14T03:39:23.862Z,1014.69
2017-06-14T03:40:04.440Z,1014.69
2017-06-14T03:40:55.879Z,1014.74
2017-06-14T03:41:36.473Z,1014.75
2017-06-14T03:42:17.120Z,1014.75
2017-06-14T03:42:57.769Z,1014.77
2017-06-14T03:43:42.930Z,1014.8
2017-06-14T03:44:24.506Z,1014.78
2017-06-14T03:45:07.104Z,1014.8
2017-06-14T03:45:48.676Z,1014.78
2017-06-14T03:46:29.342Z,1014.78
2017-06-14T03:47:11.013Z,1014.79
2017-06-14T03:47:52.683Z,1014.8
2017-06-14T03:48:37.951Z,1014.77
2017-06-14T03:49:19.621Z,1014.76
2017-06-14T03:50:00.275Z,1014.79
2017-06-14T03:50:45.439Z,1014.79
2017-06-14T03:51:26.087Z,1014.79
2017-06-14T03:52:13.507Z,1014.79
2017-06-14T03:52:54.179Z,1014.84
2017-06-14T03:53:35.827Z,1014.82
2017-06-14T03:54:22.015Z,1014.85
2017-06-14T03:55:02.670Z,1014.83
2017-06-14T03:55:48.948Z,1014.82
2017-06-14T03:56:30.116Z,1014.86
2017-06-14T03:57:21.421Z,1014.85
2017-06-14T03:58:01.995Z,1014.84
2017-06-14T03:58:42.576Z,1014.85
2017-06-14T03:59:27.674Z,1014.86
2017-06-14T04:00:08.334Z,1014.84
2017-06-14T04:00:48.907Z,1014.8
2017-06-14T04:01:30.509Z,1014.81
2017-06-14T04:02:11.113Z,1014.81
2017-06-14T04:02:52.792Z,1014.8
2017-06-14T04:03:33.363Z,1014.81
2017-06-14T04:04:14.966Z,1014.81
2017-06-14T04:04:55.561Z,1014.83
2017-06-14T04:05:46.975Z,1014.84
2017-06-14T04:06:27.544Z,1014.81
2017-06-14T04:07:08.122Z,1014.83
2017-06-14T04:07:50.778Z,1014.85
2017-06-14T04:08:32.451Z,1014.83
2017-06-14T04:09:13.104Z,1014.84
2017-06-14T04:09:53.758Z,1014.86
2017-06-14T04:10:47.210Z,1014.86
2017-06-14T04:11:32.779Z,1014.87
2017-06-14T04:12:13.434Z,1014.87
2017-06-14T04:12:56.151Z,1014.84
2017-06-14T04:13:36.795Z,1014.92
2017-06-14T04:14:17.443Z,1014.88
2017-06-14T04:15:00.044Z,1014.93
2017-06-14T04:15:45.506Z,1014.91
2017-06-14T04:16:28.208Z,1014.85
2017-06-14T04:17:08.858Z,1014.89
2017-06-14T04:17:49.431Z,1014.89
2017-06-14T04:18:35.852Z,1014.88
2017-06-14T04:19:16.467Z,1014.92
2017-06-14T04:19:57.105Z,1014.9
2017-06-14T04:20:37.657Z,1014.89
2017-06-14T04:21:29.826Z,1014.89
2017-06-14T04:22:12.476Z,1014.92
2017-06-14T04:22:57.944Z,1014.94
2017-06-14T04:23:38.603Z,1014.93
2017-06-14T04:24:19.249Z,1014.95
2017-06-14T04:24:59.903Z,1014.94
2017-06-14T04:25:41.579Z,1014.98
2017-06-14T04:26:22.233Z,1015.02
2017-06-14T04:27:02.901Z,1015.04
2017-06-14T04:27:43.433Z,1015.04
2017-06-14T04:28:25.122Z,1015.09
2017-06-14T04:29:05.763Z,1015.12
2017-06-14T04:29:46.334Z,1015.08
2017-06-14T04:30:28.021Z,1015.11
2017-06-14T04:31:09.670Z,1015.11
2017-06-14T04:31:50.242Z,1015.08
2017-06-14T04:32:32.921Z,1015.09
2017-06-14T04:33:18.281Z,1015.09
2017-06-14T04:34:09.673Z,1015.1
2017-06-14T04:34:50.342Z,1015.14
2017-06-14T04:35:35.705Z,1015.09
2017-06-14T04:36:21.275Z,1015.09
2017-06-14T04:37:07.757Z,1015.12
2017-06-14T04:37:48.415Z,1015.12
2017-06-14T04:38:29.039Z,1015.14
2017-06-14T04:39:09.635Z,1015.12
2017-06-14T04:39:54.979Z,1015.12
2017-06-14T04:40:35.532Z,1015.17
2017-06-14T06:12:55.427Z,0
2017-06-14T06:13:35.956Z,0
2017-06-14T06:14:21.315Z,0
2017-06-14T06:15:02.902Z,0
2017-06-14T06:15:45.607Z,0
2017-06-14T06:16:26.174Z,0
2017-06-14T06:17:06.734Z,0
2017-06-14T06:17:48.474Z,0
2017-06-14T06:18:29.059Z,0
2017-06-14T06:19:09.729Z,0
2017-06-14T06:19:50.388Z,0
2017-06-14T06:20:30.986Z,0
2017-06-14T06:21:11.555Z,0
2017-06-14T06:21:52.099Z,0
2017-06-14T06:22:34.705Z,0
2017-06-14T06:23:16.277Z,0
2017-06-14T06:23:57.830Z,0
2017-06-14T06:24:40.453Z,0
2017-06-14T06:25:20.996Z,0
2017-06-14T06:26:01.535Z,0
2017-06-14T06:26:49.057Z,0
2017-06-14T06:27:30.632Z,0
2017-06-14T06:28:11.196Z,0
2017-06-14T06:29:06.522Z,0
2017-06-14T06:29:47.122Z,0
2017-06-14T06:30:27.655Z,0
2017-06-14T06:31:09.277Z,0
2017-06-14T06:31:50.873Z,0
2017-06-14T06:32:31.472Z,0
2017-06-14T06:33:12.000Z,0
2017-06-14T06:33:54.641Z,0
2017-06-14T06:34:46.994Z,0
2017-06-14T06:35:33.244Z,0
2017-06-14T06:36:13.757Z,0
2017-06-14T06:36:54.353Z,0
2017-06-14T06:37:35.964Z,0
2017-06-14T06:38:17.593Z,0
2017-06-14T06:38:59.158Z,0
2017-06-14T06:39:40.737Z,0
2017-06-14T06:40:26.304Z,0
2017-06-14T06:41:22.827Z,0
2017-06-14T06:42:05.425Z,0
2017-06-14T06:42:50.791Z,0
2017-06-14T06:43:31.345Z,0
2017-06-14T06:44:18.762Z,0
2017-06-14T06:44:59.316Z,0
2017-06-14T06:45:39.861Z,0
2017-06-14T06:46:22.451Z,0
2017-06-14T06:47:03.003Z,0
2017-06-14T06:47:44.581Z,0
2017-06-14T06:48:25.131Z,0
2017-06-14T06:49:05.683Z,0
2017-06-14T06:49:48.283Z,0
2017-06-14T06:50:28.835Z,0
2017-06-14T06:51:10.401Z,0
2017-06-14T06:51:51.055Z,0
2017-06-14T06:52:31.604Z,0
2017-06-14T06:53:12.106Z,0
2017-06-14T06:54:03.587Z,0
2017-06-14T06:54:45.199Z,0
2017-06-14T06:55:25.788Z,0
2017-06-14T06:56:06.316Z,0
2017-06-14T06:56:53.600Z,0
2017-06-14T06:57:36.250Z,0
2017-06-14T06:58:17.855Z,0
2017-06-14T06:58:58.375Z,0
2017-06-14T06:59:49.626Z,0
2017-06-14T07:00:36.043Z,0
2017-06-14T07:01:21.335Z,0
2017-06-14T07:02:01.936Z,0
2017-06-14T07:02:42.588Z,0
2017-06-14T07:03:23.225Z,0
2017-06-14T07:04:03.976Z,0
2017-06-14T07:04:44.557Z,0
2017-06-14T07:05:35.651Z,0
2017-06-14T07:06:23.084Z,0
2017-06-14T07:07:10.312Z,0
2017-06-14T07:07:50.959Z,0
2017-06-14T07:08:31.601Z,0
2017-06-14T07:09:12.273Z,0
2017-06-14T07:09:52.827Z,0
2017-06-14T07:12:50.891Z,0
2017-06-14T07:13:38.457Z,0
2017-06-14T07:14:20.031Z,0
2017-06-14T07:15:02.641Z,0
2017-06-14T07:15:45.230Z,0
2017-06-14T07:16:30.419Z,0
2017-06-14T07:17:11.976Z,0
2017-06-14T07:18:03.497Z,0
2017-06-14T07:18:44.028Z,0
2017-06-14T07:19:25.610Z,0
2017-06-14T07:20:06.278Z,0
2017-06-14T07:20:47.875Z,0
2017-06-14T07:21:30.442Z,0
2017-06-14T07:22:17.944Z,0
2017-06-14T07:22:58.525Z,0
2017-06-14T07:23:43.801Z,0
2017-06-14T07:24:24.315Z,0
2017-06-14T07:25:06.000Z,0
2017-06-14T07:25:46.580Z,0
2017-06-14T07:26:27.114Z,0
2017-06-14T07:27:12.453Z,0
2017-06-14T07:28:03.702Z,0
2017-06-14T07:28:45.271Z,0
2017-06-14T07:29:26.849Z,0
2017-06-14T07:30:20.297Z,0
2017-06-14T07:31:05.764Z,0
2017-06-14T07:31:52.270Z,0
2017-06-14T07:32:33.835Z,0
2017-06-14T07:58:53.554Z,0
2017-06-14T07:59:34.082Z,0
2017-06-14T08:00:16.612Z,0
2017-06-14T08:01:03.054Z,0
2017-06-14T08:01:44.664Z,0
2017-06-14T08:02:25.220Z,0
2017-06-14T08:03:06.817Z,0
2017-06-14T08:03:47.400Z,0
2017-06-14T08:04:28.005Z,0
2017-06-14T08:05:13.777Z,0
2017-06-14T08:05:54.394Z,0
2017-06-14T08:06:34.925Z,0
2017-06-14T08:07:15.489Z,0
2017-06-14T08:07:56.076Z,0
2017-06-14T08:08:37.654Z,0
2017-06-14T08:09:18.240Z,0
2017-06-14T08:09:58.758Z,0
2017-06-14T08:10:41.610Z,0
2017-06-14T08:11:22.212Z,0
2017-06-14T08:12:02.749Z,0
2017-06-14T08:12:43.336Z,0
2017-06-14T08:13:23.968Z,0
2017-06-14T08:14:04.486Z,0
2017-06-14T08:14:45.067Z,0
2017-06-14T08:15:25.667Z,0
2017-06-14T08:16:07.296Z,0
2017-06-14T08:16:47.803Z,0
2017-06-14T08:17:35.176Z,0
2017-06-14T08:18:16.834Z,0
2017-06-14T08:18:57.351Z,0
2017-06-14T08:19:38.913Z,0
2017-06-14T08:20:21.558Z,0
2017-06-14T08:21:02.110Z,0
2017-06-14T08:21:42.629Z,0
2017-06-14T08:22:25.262Z,0
2017-06-14T08:23:06.854Z,0
2017-06-14T08:23:47.498Z,0
2017-06-14T08:24:28.065Z,0
2017-06-14T08:25:10.628Z,0
2017-06-14T08:25:56.207Z,0
2017-06-14T08:26:37.782Z,0
2017-06-14T08:27:19.356Z,0
2017-06-14T08:28:00.921Z,0
2017-06-14T08:28:46.388Z,0
2017-06-14T08:29:27.972Z,0
2017-06-14T08:30:08.550Z,0
2017-06-14T08:56:03.309Z,1015.01
2017-06-14T08:56:44.962Z,1014.98
2017-06-14T08:57:25.544Z,1014.96
2017-06-14T08:58:06.197Z,1014.95
2017-06-14T08:58:46.801Z,1014.94
2017-06-14T08:59:38.303Z,1014.87
2017-06-14T09:00:19.956Z,1014.86
2017-06-14T10:25:08.557Z,1014.43
2017-06-14T10:25:49.178Z,1014.39
2017-06-14T10:26:29.764Z,1014.45
2017-06-14T10:27:10.413Z,1014.37
2017-06-14T10:27:51.069Z,1014.39
2017-06-14T10:28:31.645Z,1014.37
2017-06-14T10:29:12.216Z,1014.35
2017-06-14T10:29:52.820Z,1014.31
2017-06-14T10:30:33.413Z,1014.29
2017-06-14T10:31:14.026Z,1014.3
2017-06-14T10:31:54.604Z,1014.28
2017-06-14T10:32:35.243Z,1014.28
2017-06-14T10:33:15.814Z,1014.28
2017-06-14T10:33:56.533Z,1014.28
2017-06-14T10:34:37.186Z,1014.3
2017-06-14T10:35:17.853Z,1014.3
2017-06-14T10:35:58.492Z,1014.29
2017-06-14T10:36:39.064Z,1014.25
2017-06-14T10:37:19.636Z,1014.28
2017-06-14T10:38:00.332Z,1014.25
2017-06-14T10:38:41.937Z,1014.26
2017-06-14T10:39:22.509Z,1014.26
2017-06-14T10:40:03.129Z,1014.3
2017-06-14T10:40:43.711Z,1014.3
2017-06-14T10:41:24.344Z,1014.25
2017-06-14T10:42:04.985Z,1014.3
2017-06-14T10:42:45.642Z,1014.26
2017-06-14T10:43:26.297Z,1014.25
2017-06-14T10:44:06.949Z,1014.23
2017-06-14T10:44:49.292Z,1014.24
2017-06-14T10:45:30.912Z,1014.21
2017-06-14T10:46:26.173Z,1014.19
2017-06-14T10:47:11.674Z,1014.19
2017-06-14T10:47:52.315Z,1014.21
2017-06-14T11:11:37.894Z,1013.98
2017-06-14T11:12:24.438Z,1013.99
2017-06-14T11:13:05.041Z,1013.99
2017-06-14T11:13:45.742Z,1014.04
2017-06-14T11:14:40.934Z,1014.04
2017-06-14T11:15:27.427Z,1014.03
2017-06-14T11:16:08.076Z,1014.02
2017-06-14T11:16:54.465Z,1014.02
2017-06-14T11:17:49.969Z,1014
2017-06-14T11:18:35.436Z,1013.99
2017-06-14T11:19:28.989Z,1014.03
2017-06-14T11:20:15.484Z,1013.97
2017-06-14T11:20:58.078Z,1014
2017-06-14T11:34:04.356Z,1013.87
2017-06-14T12:21:45.992Z,1013.57
2017-06-14T12:22:26.575Z,1013.56
2017-06-14T12:23:11.772Z,1013.52
2017-06-14T12:23:58.288Z,1013.55
2017-06-14T12:24:40.890Z,1013.51
2017-06-14T12:57:35.666Z,1013.48
2017-06-14T12:58:17.231Z,1013.43
2017-06-14T12:58:58.829Z,1013.46
2017-06-14T12:59:44.002Z,1013.47
2017-06-14T13:00:24.590Z,1013.48
2017-06-14T13:01:17.786Z,1013.5
2017-06-14T13:02:03.968Z,1013.5
2017-06-14T13:02:44.532Z,1013.47
2017-06-14T13:03:25.171Z,1013.47
2017-06-14T13:04:05.936Z,1013.46
2017-06-14T13:04:53.446Z,1013.47
2017-06-14T13:05:34.098Z,1013.47
2017-06-14T13:06:17.185Z,1013.52
2017-06-14T13:07:14.151Z,1013.51
2017-06-14T13:07:55.308Z,1013.49
2017-06-14T13:08:50.507Z,1013.46
2017-06-14T13:09:31.090Z,1013.5
2017-06-14T13:10:11.757Z,1013.48
2017-06-14T13:10:54.402Z,1013.49
2017-06-14T13:11:41.587Z,1013.45
2017-06-14T13:12:22.069Z,1013.44
2017-06-14T13:13:02.663Z,1013.44
2017-06-14T13:13:50.238Z,1013.4
2017-06-14T13:14:36.524Z,1013.37
2017-06-14T13:15:17.096Z,1013.39
2017-06-14T13:15:58.702Z,1013.35
2017-06-14T13:49:43.654Z,1013.06
2017-06-14T13:50:25.267Z,1013.03
2017-06-14T13:51:17.680Z,1013.01
2017-06-14T13:51:59.268Z,1012.98
2017-06-14T13:52:40.854Z,1012.98
2017-06-14T13:53:34.183Z,1012.99
2017-06-14T13:54:16.757Z,1012.99
2017-06-14T13:55:09.188Z,1012.94
2017-06-14T13:55:50.753Z,1012.91
2017-06-14T13:56:32.335Z,1012.99
2017-06-14T14:01:00.345Z,1012.95
2017-06-14T14:01:52.945Z,1012.94
2017-06-14T14:02:35.545Z,1012.94
2017-06-14T14:03:18.118Z,1012.94
2017-06-14T14:04:00.714Z,1012.94
2017-06-14T14:04:42.281Z,1012.97
2017-06-14T14:05:27.466Z,1012.93
2017-06-14T14:06:19.945Z,1012.89
2017-06-14T14:07:00.524Z,1012.88
2017-06-14T14:07:41.119Z,1012.87
2017-06-14T14:08:21.726Z,1012.87
2017-06-14T14:09:04.321Z,1012.86
2017-06-14T14:10:00.452Z,1012.86
2017-06-14T14:10:43.021Z,1012.84
2017-06-14T14:11:25.589Z,1012.85
2017-06-14T14:12:07.161Z,1012.81
2017-06-14T14:12:52.476Z,1012.81
2017-06-14T14:13:33.024Z,1012.81
2017-06-14T14:14:14.602Z,1012.75
2017-06-14T14:14:55.181Z,1012.76
2017-06-14T14:15:35.765Z,1012.69
2017-06-14T14:16:17.332Z,1012.6
2017-06-14T14:17:04.457Z,1012.76
2017-06-14T14:17:45.022Z,1012.76
2017-06-14T14:18:31.456Z,1012.76
2017-06-14T14:19:16.955Z,1012.75
2017-06-14T14:19:58.535Z,1012.74
2017-06-14T14:20:44.949Z,1012.75
2017-06-14T14:21:25.538Z,1012.76
2017-06-14T14:22:16.960Z,1012.73
2017-06-14T14:22:57.531Z,1012.73
2017-06-14T14:23:43.949Z,1012.69
2017-06-14T14:24:37.453Z,1012.7
2017-06-14T14:25:20.048Z,1012.68
2017-06-14T14:26:00.626Z,1012.67
2017-06-14T14:26:41.208Z,1012.65
2017-06-14T14:27:22.793Z,1012.66
2017-06-14T14:28:05.375Z,1012.59
2017-06-14T14:28:51.966Z,1012.62
2017-06-14T14:29:32.521Z,1012.6
2017-06-14T14:30:18.701Z,1012.57
2017-06-14T14:31:03.959Z,1012.56
2017-06-14T14:31:44.527Z,1012.55
2017-06-14T14:32:25.097Z,1012.57
2017-06-14T14:33:10.463Z,1012.56
2017-06-14T14:33:51.033Z,1012.52
2017-06-14T14:34:37.201Z,1012.51
2017-06-14T14:35:28.708Z,1012.55
2017-06-14T14:36:20.210Z,1012.52
2017-06-14T14:37:01.790Z,1012.54
2017-06-14T14:37:42.350Z,1012.51
2017-06-14T14:38:29.719Z,1012.53
2017-06-14T14:39:15.228Z,1012.52
2017-06-14T14:39:55.800Z,1012.48
2017-06-14T14:40:36.376Z,1012.51
2017-06-14T14:41:27.859Z,1012.48
2017-06-14T14:42:09.436Z,1012.51
2017-06-14T14:43:00.981Z,1012.52
2017-06-14T14:43:41.519Z,1012.51
2017-06-14T14:44:26.828Z,1012.49
2017-06-14T14:45:09.406Z,1012.51
2017-06-14T14:45:51.975Z,1012.51
2017-06-14T14:46:32.565Z,1012.49
2017-06-14T14:47:17.849Z,1012.48
2017-06-14T14:47:58.443Z,1012.51
2017-06-14T14:48:44.966Z,1012.44
2017-06-14T14:49:25.542Z,1012.46
2017-06-14T14:50:06.132Z,1012.45
2017-06-14T14:50:47.717Z,1012.45
2017-06-14T14:51:28.290Z,1012.46
2017-06-14T14:52:09.885Z,1012.43
2017-06-14T14:52:54.985Z,1012.42
2017-06-14T14:53:35.564Z,1012.4
2017-06-14T14:54:17.143Z,1012.38
2017-06-14T14:55:08.458Z,1012.38
2017-06-14T14:55:55.966Z,1012.36
2017-06-14T14:56:37.541Z,1012.33
2017-06-14T14:57:19.119Z,1012.33
2017-06-14T14:57:59.674Z,1012.34
2017-06-14T14:58:40.341Z,1012.32
2017-06-14T14:59:25.475Z,1012.31
2017-06-14T15:00:06.061Z,1012.29
2017-06-14T15:00:46.631Z,1012.34
2017-06-14T15:01:27.207Z,1012.34
2017-06-14T15:02:12.497Z,1012.32
2017-06-14T15:02:55.165Z,1012.35
2017-06-14T15:03:46.466Z,1012.34
2017-06-14T15:04:28.059Z,1012.31
2017-06-14T15:05:10.661Z,1012.32
2017-06-14T15:05:52.279Z,1012.29
2017-06-14T15:06:38.474Z,1012.32
2017-06-14T15:07:24.968Z,1012.29
2017-06-14T15:08:05.576Z,1012.32
2017-06-14T15:08:46.140Z,1012.3
2017-06-14T15:09:31.470Z,1012.33
2017-06-14T15:10:19.008Z,1012.29
2017-06-14T15:10:59.568Z,1012.31
2017-06-14T15:11:40.160Z,1012.25
2017-06-14T15:12:22.710Z,1012.3
2017-06-14T15:13:03.281Z,1012.27
2017-06-14T15:13:43.858Z,1012.29
2017-06-14T15:14:24.434Z,1012.26
2017-06-14T15:15:09.731Z,1012.24